createdAt,value
2022-09-21T00:02:42.217Z,7.72
2022-09-21T00:07:44.282Z,9.35
2022-09-21T00:12:46.940Z,8.70
2022-09-21T00:17:52.127Z,11.25
2022-09-21T00:22:53.644Z,9.77
2022-09-21T00:27:54.983Z,13.40
2022-09-21T00:32:56.319Z,10.05
2022-09-21T00:38:01.205Z,8.95
2022-09-21T00:43:16.674Z,9.50
2022-09-21T00:48:18.337Z,9.73
2022-09-21T00:53:20.249Z,9.43
2022-09-21T00:58:28.620Z,7.78
2022-09-21T01:03:31.599Z,12.00
2022-09-21T01:08:33.588Z,10.70
2022-09-21T01:13:44.112Z,8.95
2022-09-21T01:18:57.653Z,10.95
2022-09-21T01:23:59.085Z,8.18
2022-09-21T01:29:12.496Z,10.98
2022-09-21T01:34:35.946Z,14.20
2022-09-21T01:39:40.048Z,9.02
2022-09-21T01:44:44.879Z,8.75
2022-09-21T01:49:46.615Z,7.63
2022-09-21T01:54:54.155Z,10.35
2022-09-21T02:00:01.518Z,9.27
2022-09-21T02:05:04.127Z,10.13
2022-09-21T02:10:09.663Z,8.63
2022-09-21T02:15:11.130Z,17.38
2022-09-21T02:20:22.984Z,8.55
2022-09-21T02:25:37.803Z,9.82
2022-09-21T02:30:45.270Z,7.93
2022-09-21T02:35:46.635Z,8.75
2022-09-21T02:41:28.305Z,7.35
2022-09-21T02:46:43.497Z,7.78
2022-09-21T02:51:49.402Z,8.52
2022-09-21T02:56:52.846Z,9.52
2022-09-21T03:01:55.234Z,10.20
2022-09-21T03:06:56.649Z,8.90
2022-09-21T03:11:58.051Z,8.63
2022-09-21T03:16:59.979Z,7.53
2022-09-21T03:22:01.389Z,8.23
2022-09-21T03:27:02.840Z,10.23
2022-09-21T03:32:04.366Z,8.13
2022-09-21T03:37:07.649Z,9.88
2022-09-21T03:42:08.998Z,10.27
2022-09-21T03:47:10.454Z,11.55
2022-09-21T03:52:11.829Z,11.00
2022-09-21T03:57:13.248Z,10.30
2022-09-21T04:02:15.755Z,8.50
2022-09-21T04:07:17.206Z,8.63
2022-09-21T04:12:22.217Z,10.02
2022-09-21T04:17:23.650Z,12.95
2022-09-21T04:22:25.200Z,8.57
2022-09-21T04:27:26.680Z,9.35
2022-09-21T04:32:28.026Z,10.50
2022-09-21T04:37:29.493Z,9.27
2022-09-21T04:42:31.426Z,9.30
2022-09-21T04:47:32.821Z,10.57
2022-09-21T04:52:34.387Z,10.02
2022-09-21T04:57:35.780Z,14.43
2022-09-21T05:02:37.154Z,10.23
2022-09-21T05:07:38.599Z,12.00
2022-09-21T05:12:41.237Z,10.18
2022-09-21T05:17:42.727Z,8.43
2022-09-21T05:22:44.110Z,13.10
2022-09-21T05:27:45.528Z,11.57
2022-09-21T05:33:01.346Z,9.70
2022-09-21T05:38:21.672Z,9.93
2022-09-21T05:48:33.310Z,8.27
2022-09-21T05:53:50.013Z,9.32
2022-09-21T05:59:08.350Z,18.15
2022-09-21T06:04:11.700Z,11.68
2022-09-21T06:09:13.034Z,9.65
2022-09-21T06:14:14.387Z,14.10
2022-09-21T06:19:16.245Z,10.57
2022-09-21T06:24:17.591Z,11.68
2022-09-21T06:29:18.951Z,16.48
2022-09-21T06:34:20.308Z,14.98
2022-09-21T06:39:21.652Z,14.80
2022-09-21T06:44:24.077Z,14.48
2022-09-21T06:49:25.488Z,12.30
2022-09-21T06:54:26.858Z,13.18
2022-09-21T06:59:28.196Z,13.65
2022-09-21T07:04:29.654Z,17.48
2022-09-21T07:14:52.499Z,14.20
2022-09-21T07:19:53.822Z,11.60
2022-09-21T07:24:55.440Z,16.88
2022-09-21T07:29:56.936Z,14.02
2022-09-21T07:34:58.376Z,12.25
2022-09-21T07:39:59.762Z,15.43
2022-09-21T07:45:04.711Z,11.90
2022-09-21T07:50:06.926Z,17.33
2022-09-21T07:55:08.303Z,14.70
2022-09-21T08:00:10.155Z,12.90
2022-09-21T08:05:11.610Z,13.80
2022-09-21T08:10:12.938Z,12.00
2022-09-21T08:15:36.922Z,10.98
2022-09-21T08:20:35.871Z,12.75
2022-09-21T08:25:37.264Z,10.80
2022-09-21T08:30:38.646Z,10.35
2022-09-21T08:35:40.023Z,10.63
2022-09-21T08:40:41.460Z,9.70
2022-09-21T08:45:45.317Z,9.93
2022-09-21T08:50:52.257Z,7.78
2022-09-21T08:55:57.809Z,13.88
2022-09-21T09:01:20.385Z,15.55
2022-09-21T09:06:28.993Z,8.18
2022-09-21T09:12:22.234Z,10.15
2022-09-21T09:17:38.891Z,9.43
2022-09-21T09:22:46.735Z,9.65
2022-09-21T09:27:54.111Z,11.70
2022-09-21T09:33:28.211Z,12.02
2022-09-21T09:38:41.872Z,9.43
2022-09-21T09:43:51.423Z,9.32
2022-09-21T09:49:11.028Z,9.18
2022-09-21T09:54:33.767Z,9.07
2022-09-21T09:59:53.996Z,11.77
2022-09-21T10:05:00.890Z,11.25
2022-09-21T10:10:02.563Z,9.25
2022-09-21T10:15:10.738Z,11.25
2022-09-21T10:20:19.275Z,8.55
2022-09-21T10:25:21.285Z,9.80
2022-09-21T10:30:37.438Z,9.52
2022-09-21T10:35:50.994Z,5.63
2022-09-21T10:40:52.516Z,7.18
2022-09-21T10:45:56.775Z,8.52
2022-09-21T10:50:58.305Z,6.95
2022-09-21T10:56:15.379Z,9.60
2022-09-21T11:01:25.466Z,8.90
2022-09-21T11:06:34.830Z,6.93
2022-09-21T11:11:43.672Z,8.30
2022-09-21T11:16:55.615Z,8.27
2022-09-21T11:22:11.832Z,8.05
2022-09-21T11:27:21.217Z,8.50
2022-09-21T11:32:33.630Z,13.20
2022-09-21T11:37:51.226Z,4.57
2022-09-21T11:43:01.526Z,4.43
2022-09-21T11:48:30.142Z,5.80
2022-09-21T11:54:08.324Z,9.43
2022-09-21T11:59:28.846Z,5.38
2022-09-21T12:04:38.123Z,6.93
2022-09-21T12:09:46.013Z,7.28
2022-09-21T12:15:06.986Z,4.07
2022-09-21T12:20:14.327Z,3.88
2022-09-21T12:25:27.319Z,4.85
2022-09-21T12:30:31.859Z,3.05
2022-09-21T12:35:43.776Z,4.18
2022-09-21T12:41:33.026Z,4.20
2022-09-21T12:46:45.105Z,19.45
2022-09-21T12:51:52.126Z,10.60
2022-09-21T12:56:58.893Z,3.63
2022-09-21T13:02:29.678Z,5.95
2022-09-21T13:07:48.015Z,3.70
2022-09-21T13:12:55.993Z,4.22
2022-09-21T13:18:03.022Z,5.50
2022-09-21T13:23:05.027Z,3.17
2022-09-21T13:28:09.370Z,2.92
2022-09-21T13:33:20.127Z,3.53
2022-09-21T13:38:30.795Z,3.47
2022-09-21T13:43:45.315Z,2.97
2022-09-21T13:48:53.223Z,3.65
2022-09-21T13:58:58.364Z,4.38
2022-09-21T14:04:17.756Z,5.05
2022-09-21T14:09:24.425Z,4.65
2022-09-21T14:14:36.826Z,6.38
2022-09-21T14:19:44.016Z,4.72
2022-09-21T14:24:45.306Z,5.63
2022-09-21T14:29:53.126Z,3.85
2022-09-21T14:35:00.486Z,4.30
2022-09-21T14:40:18.845Z,4.97
2022-09-21T14:45:42.410Z,3.03
2022-09-21T14:50:52.351Z,6.35
2022-09-21T14:56:10.311Z,5.28
2022-09-21T15:01:30.387Z,5.78
2022-09-21T15:06:48.390Z,5.70
2022-09-21T15:12:01.350Z,5.70
2022-09-21T15:17:26.242Z,5.85
2022-09-21T15:22:27.983Z,4.20
2022-09-21T15:27:35.083Z,5.75
2022-09-21T15:32:40.281Z,4.43
2022-09-21T15:37:42.007Z,3.83
2022-09-21T15:43:02.195Z,8.00
2022-09-21T15:48:06.894Z,2.70
2022-09-21T15:53:18.828Z,4.53
2022-09-21T15:58:39.186Z,4.10
2022-09-21T16:03:41.866Z,3.50
2022-09-21T16:08:43.308Z,4.65
2022-09-21T16:13:47.214Z,4.63
2022-09-21T16:18:50.942Z,5.80
2022-09-21T16:23:55.088Z,4.30
2022-09-21T16:29:15.666Z,2.65
2022-09-21T16:34:16.987Z,3.28
2022-09-21T16:39:19.419Z,3.42
2022-09-21T16:44:23.321Z,4.97
2022-09-21T16:49:30.007Z,3.47
2022-09-21T16:54:31.869Z,4.82
2022-09-21T16:59:34.040Z,5.07
2022-09-21T17:04:35.692Z,1.75
2022-09-21T17:09:39.516Z,3.30
2022-09-21T17:14:46.201Z,3.38
2022-09-21T17:19:50.718Z,5.32
2022-09-21T17:24:52.760Z,5.15
2022-09-21T17:29:54.296Z,4.75
2022-09-21T17:35:11.693Z,6.75
2022-09-21T17:40:14.046Z,6.00
2022-09-21T17:45:21.739Z,6.53
2022-09-21T17:50:26.323Z,5.55
2022-09-21T17:55:28.696Z,5.43
2022-09-21T18:00:41.738Z,5.18
2022-09-21T18:05:43.254Z,6.78
2022-09-21T18:10:54.495Z,4.72
2022-09-21T18:16:13.411Z,6.60
2022-09-21T18:21:23.218Z,7.03
2022-09-21T18:26:24.789Z,7.40
2022-09-21T18:31:38.015Z,6.25
2022-09-21T18:36:57.554Z,7.93
2022-09-21T18:42:08.118Z,7.43
2022-09-21T18:47:32.875Z,7.47
2022-09-21T18:53:14.283Z,7.80
2022-09-21T18:58:16.011Z,9.52
2022-09-21T19:03:19.235Z,8.05
2022-09-21T19:08:51.009Z,7.60
2022-09-21T19:14:04.502Z,9.73
2022-09-21T19:19:44.287Z,9.57
2022-09-21T19:24:58.788Z,7.35
2022-09-21T19:30:11.463Z,12.80
2022-09-21T19:35:23.485Z,7.68
2022-09-21T19:40:34.547Z,8.20
2022-09-21T19:46:27.173Z,8.13
2022-09-21T19:51:41.816Z,8.48
2022-09-21T19:56:54.729Z,8.80
2022-09-21T20:02:01.806Z,7.65
2022-09-21T20:07:16.681Z,7.68
2022-09-21T20:12:24.579Z,7.50
2022-09-21T20:17:41.108Z,5.05
2022-09-21T20:22:42.647Z,7.15
2022-09-21T20:27:51.067Z,7.00
2022-09-21T20:32:56.002Z,5.82
2022-09-21T20:38:02.195Z,8.43
2022-09-21T20:43:04.353Z,6.28
2022-09-21T20:48:05.677Z,6.30
2022-09-21T20:53:07.723Z,6.78
2022-09-21T20:58:13.018Z,6.22
2022-09-21T21:03:14.350Z,7.53
2022-09-21T21:08:15.703Z,8.65
2022-09-21T21:13:17.165Z,7.95
2022-09-21T21:18:18.564Z,8.75
2022-09-21T21:23:20.083Z,7.13
2022-09-21T21:28:21.491Z,8.02
2022-09-21T21:33:22.933Z,9.52
2022-09-21T21:38:24.248Z,9.90
2022-09-21T21:43:25.781Z,10.20
2022-09-21T21:48:27.123Z,8.00
2022-09-21T21:53:31.842Z,8.98
2022-09-21T21:58:34.010Z,8.82
2022-09-21T22:03:35.830Z,10.18
2022-09-21T22:08:38.694Z,11.23
2022-09-21T22:13:40.524Z,10.50
2022-09-21T22:18:42.845Z,11.45
2022-09-21T22:23:44.165Z,12.15
2022-09-21T22:28:48.137Z,12.25
2022-09-21T22:33:49.687Z,11.65
2022-09-21T22:38:51.134Z,11.50
2022-09-21T22:43:54.134Z,14.63
2022-09-21T22:48:55.451Z,8.45
2022-09-21T22:53:57.569Z,12.32
2022-09-21T22:59:00.787Z,9.02
2022-09-21T23:04:05.302Z,10.27
2022-09-21T23:09:09.569Z,10.02
2022-09-21T23:14:11.438Z,12.55
2022-09-21T23:19:12.833Z,11.52
2022-09-21T23:36:22.939Z,10.70
2022-09-21T23:41:30.055Z,10.00
2022-09-21T23:46:34.444Z,10.32
2022-09-21T23:51:36.069Z,11.95
2022-09-21T23:56:37.419Z,12.40
